Time;durP1;ratioP1;P1;durP2;ratioP2;P2;SDS_P1;SDS_P2;PMS_P1;PMS_P2;Temp;Humidity;BMP_temperature;BMP_pressure;BME280_temperature;BME280_humidity;BME280_pressure;Samples;Min_cycle;Max_cycle;Signal;HPM_P1;HPM_P2
2023/11/11 00:01:44;;;;;;;1.97;1.03;;;8.70;99.90;;;;;;4991609;28;20540;-75
2023/11/11 00:04:31;;;;;;;5.37;1.20;;;8.80;99.90;;;;;;4993494;28;20871;-76
2023/11/11 00:07:17;;;;;;;4.17;1.17;;;8.70;99.90;;;;;;4999984;28;20549;-72
2023/11/11 00:10:03;;;;;;;2.80;1.90;;;8.70;99.90;;;;;;4998714;28;20811;-76
2023/11/11 00:12:49;;;;;;;4.10;1.27;;;8.70;99.90;;;;;;4993672;28;20950;-76
2023/11/11 00:15:35;;;;;;;3.70;1.40;;;8.70;99.90;;;;;;4993175;28;20438;-76
2023/11/11 00:18:21;;;;;;;4.57;1.50;;;8.80;99.90;;;;;;4992702;28;20498;-76
2023/11/11 00:21:09;;;;;;;3.50;1.30;;;8.80;99.90;;;;;;4991756;28;20920;-76
2023/11/11 00:23:56;;;;;;;3.20;1.10;;;8.70;99.90;;;;;;4994231;28;20447;-75
2023/11/11 00:26:41;;;;;;;2.30;1.07;;;8.80;99.90;;;;;;4997720;28;20836;-76
2023/11/11 00:29:27;;;;;;;5.43;1.63;;;8.90;99.90;;;;;;4993285;28;20513;-76
2023/11/11 00:32:13;;;;;;;1.63;1.00;;;8.90;99.90;;;;;;4987924;28;20452;-76
2023/11/11 00:34:59;;;;;;;3.93;1.47;;;8.90;99.90;;;;;;4995692;28;20566;-76
2023/11/11 00:37:46;;;;;;;3.07;1.30;;;8.90;99.90;;;;;;4993403;28;21013;-75
2023/11/11 00:40:32;;;;;;;2.80;1.27;;;8.90;99.90;;;;;;4990773;28;20586;-74
2023/11/11 00:43:17;;;;;;;2.90;1.27;;;8.80;99.90;;;;;;4992555;28;20470;-74
2023/11/11 00:46:03;;;;;;;4.53;1.30;;;8.80;99.90;;;;;;4993389;28;20585;-76
2023/11/11 00:48:48;;;;;;;1.80;1.20;;;8.90;99.90;;;;;;4995004;28;20445;-74
2023/11/11 00:51:35;;;;;;;5.17;1.33;;;8.80;99.90;;;;;;4991521;28;20425;-74
2023/11/11 00:54:22;;;;;;;2.40;1.17;;;8.80;99.90;;;;;;4989434;28;20431;-76
2023/11/11 00:57:08;;;;;;;4.13;1.20;;;8.90;99.90;;;;;;4994999;28;20631;-77
2023/11/11 00:59:54;;;;;;;2.23;1.17;;;8.80;99.90;;;;;;4996774;28;20998;-76
2023/11/11 01:02:40;;;;;;;1.93;1.03;;;8.80;99.90;;;;;;4995464;28;20511;-76
2023/11/11 01:05:26;;;;;;;2.87;1.40;;;8.80;99.90;;;;;;4990115;28;20796;-77
2023/11/11 01:08:12;;;;;;;3.40;1.40;;;8.80;99.90;;;;;;4994498;28;20467;-76
2023/11/11 01:11:01;;;;;;;5.83;1.53;;;8.80;99.90;;;;;;4996136;28;20481;-76
2023/11/11 01:13:48;;;;;;;3.13;1.40;;;8.90;99.90;;;;;;4995902;28;20466;-76
2023/11/11 01:16:34;;;;;;;2.80;1.80;;;8.80;99.90;;;;;;4991592;28;20486;-76
2023/11/11 01:19:20;;;;;;;4.33;1.53;;;8.70;99.90;;;;;;4989797;28;20432;-76
2023/11/11 01:22:05;;;;;;;1.97;1.53;;;8.70;99.90;;;;;;4994754;28;20446;-76
2023/11/11 01:24:51;;;;;;;6.13;1.60;;;8.70;99.90;;;;;;4995036;28;20427;-76
2023/11/11 01:27:38;;;;;;;3.33;1.70;;;8.70;99.90;;;;;;4995222;28;20846;-76
2023/11/11 01:30:24;;;;;;;3.50;1.50;;;8.70;99.90;;;;;;4990109;28;20423;-76
2023/11/11 01:33:09;;;;;;;1.93;1.40;;;8.80;99.90;;;;;;4994384;28;20534;-76
2023/11/11 01:36:00;;;;;;;3.33;1.50;;;8.80;99.90;;;;;;4999937;28;21840;-76
2023/11/11 01:38:45;;;;;;;6.53;1.70;;;8.80;99.90;;;;;;4999560;28;20482;-76
2023/11/11 01:41:31;;;;;;;3.70;1.70;;;8.70;99.90;;;;;;4997350;28;20446;-75
2023/11/11 01:44:18;;;;;;;3.87;2.00;;;8.60;99.90;;;;;;4992673;28;20510;-76
2023/11/11 01:47:06;;;;;;;2.90;1.50;;;8.50;99.90;;;;;;4994044;28;20473;-74
2023/11/11 01:49:52;;;;;;;4.57;1.80;;;8.50;99.90;;;;;;4996268;28;21050;-74
2023/11/11 01:52:38;;;;;;;3.53;1.80;;;8.50;99.90;;;;;;4996225;28;20606;-76
2023/11/11 01:55:24;;;;;;;2.77;1.60;;;8.50;99.90;;;;;;4993695;28;20433;-76
2023/11/11 01:58:10;;;;;;;3.80;1.50;;;8.50;99.90;;;;;;4998989;28;20437;-76
2023/11/11 02:00:59;;;;;;;3.53;1.47;;;8.30;99.90;;;;;;5000922;28;20441;-75
2023/11/11 02:03:45;;;;;;;7.50;4.10;;;8.30;99.90;;;;;;4999502;28;20459;-76
2023/11/11 02:06:32;;;;;;;4.43;1.30;;;8.20;99.90;;;;;;4994734;28;20422;-76
2023/11/11 02:09:22;;;;;;;6.03;2.60;;;8.20;99.90;;;;;;4993575;28;20435;-76
2023/11/11 02:12:08;;;;;;;8.53;1.40;;;8.20;99.90;;;;;;4999092;28;20581;-76
2023/11/11 02:14:54;;;;;;;3.77;1.10;;;8.10;99.90;;;;;;5006702;28;20434;-76
2023/11/11 02:17:41;;;;;;;1.83;0.90;;;8.20;99.90;;;;;;4996010;28;20583;-75
2023/11/11 02:20:29;;;;;;;1.75;0.80;;;8.20;99.90;;;;;;4990217;28;20455;-76
2023/11/11 02:23:16;;;;;;;1.40;0.80;;;8.10;99.90;;;;;;4999576;28;20231;-75
2023/11/11 02:26:04;;;;;;;2.60;0.77;;;8.10;99.90;;;;;;4996272;28;20818;-75
2023/11/11 02:28:51;;;;;;;3.20;1.73;;;8.10;99.90;;;;;;5001061;28;20540;-76
2023/11/11 02:31:37;;;;;;;2.07;0.97;;;7.90;99.90;;;;;;4994349;28;20424;-76
2023/11/11 02:34:23;;;;;;;1.50;0.70;;;7.70;99.90;;;;;;4993843;28;20502;-74
2023/11/11 02:37:08;;;;;;;2.00;0.90;;;7.50;99.90;;;;;;4999079;28;20500;-75
2023/11/11 02:39:54;;;;;;;2.80;0.80;;;7.30;99.90;;;;;;4999803;28;20215;-75
2023/11/11 02:42:42;;;;;;;3.13;1.50;;;7.40;99.90;;;;;;4996666;28;20501;-76
2023/11/11 02:45:28;;;;;;;1.30;0.70;;;7.30;99.90;;;;;;4999242;28;20426;-76
2023/11/11 02:48:13;;;;;;;1.53;0.80;;;7.20;99.90;;;;;;4998430;28;20477;-76
2023/11/11 02:50:59;;;;;;;4.87;1.00;;;7.10;99.90;;;;;;5001360;28;20437;-76
2023/11/11 02:53:45;;;;;;;1.80;0.75;;;7.10;99.90;;;;;;4999626;28;20928;-76
2023/11/11 02:56:31;;;;;;;13.33;1.00;;;7.00;99.90;;;;;;4994992;28;20855;-76
2023/11/11 02:59:18;;;;;;;2.63;1.00;;;7.10;99.90;;;;;;4998854;28;20481;-76
2023/11/11 03:02:04;;;;;;;1.30;0.70;;;7.10;99.90;;;;;;4995867;28;20445;-72
2023/11/11 03:04:50;;;;;;;1.37;0.70;;;7.20;99.90;;;;;;5000591;28;20938;-75
2023/11/11 03:07:37;;;;;;;1.60;0.90;;;7.20;99.90;;;;;;4995542;28;20499;-74
2023/11/11 03:10:23;;;;;;;1.20;0.70;;;7.20;99.90;;;;;;4997479;28;20421;-76
2023/11/11 03:13:09;;;;;;;3.53;0.90;;;7.30;99.90;;;;;;4998639;28;20501;-73
2023/11/11 03:15:56;;;;;;;2.93;0.90;;;7.30;99.90;;;;;;5001326;28;20477;-73
2023/11/11 03:18:42;;;;;;;3.03;0.90;;;7.30;99.90;;;;;;4994149;28;20539;-74
2023/11/11 03:21:27;;;;;;;1.77;0.80;;;7.30;99.90;;;;;;4994482;28;20422;-74
2023/11/11 03:24:14;;;;;;;2.27;1.03;;;7.30;99.90;;;;;;4997334;28;20436;-74
2023/11/11 03:26:59;;;;;;;1.37;0.77;;;7.30;99.90;;;;;;5001211;28;21184;-73
2023/11/11 03:29:45;;;;;;;5.93;1.17;;;7.40;99.90;;;;;;4999467;28;20569;-73
2023/11/11 03:32:32;;;;;;;1.30;0.60;;;7.50;99.90;;;;;;4994527;28;20482;-74
2023/11/11 03:35:17;;;;;;;1.37;0.73;;;7.50;99.90;;;;;;4998728;28;20431;-74
2023/11/11 03:38:03;;;;;;;2.07;0.67;;;7.60;99.90;;;;;;4998472;28;20422;-74
2023/11/11 03:40:49;;;;;;;1.93;0.80;;;7.60;99.90;;;;;;4997169;28;20427;-74
2023/11/11 03:43:35;;;;;;;3.10;0.90;;;7.70;99.90;;;;;;4994759;28;20578;-74
2023/11/11 03:46:21;;;;;;;1.30;0.70;;;7.70;99.90;;;;;;4998858;28;20799;-74
2023/11/11 03:49:08;;;;;;;1.80;0.77;;;7.70;99.90;;;;;;4999821;28;20581;-74
2023/11/11 03:51:54;;;;;;;2.17;0.80;;;7.70;99.90;;;;;;5001953;28;20447;-74
2023/11/11 03:54:40;;;;;;;2.00;0.80;;;7.70;99.90;;;;;;4995900;28;20851;-74
2023/11/11 03:57:26;;;;;;;4.20;1.10;;;7.60;99.90;;;;;;4996524;28;20447;-73
2023/11/11 04:00:17;;;;;;;1.50;0.80;;;7.70;99.90;;;;;;4998243;28;20445;-73
2023/11/11 04:03:02;;;;;;;2.60;0.87;;;7.70;99.90;;;;;;4998383;28;20452;-74
2023/11/11 04:05:49;;;;;;;1.90;1.10;;;7.80;99.90;;;;;;4998276;28;20439;-73
2023/11/11 04:08:35;;;;;;;1.63;0.90;;;7.80;99.90;;;;;;4991845;28;20529;-74
2023/11/11 04:11:22;;;;;;;1.63;0.90;;;7.80;99.90;;;;;;4996740;28;20441;-73
2023/11/11 04:14:07;;;;;;;1.60;0.93;;;7.80;99.90;;;;;;4998100;28;20427;-73
2023/11/11 04:16:53;;;;;;;1.77;1.03;;;7.70;99.90;;;;;;5001233;28;20435;-74
2023/11/11 04:19:39;;;;;;;2.37;1.03;;;7.70;99.90;;;;;;4995973;28;21051;-73
2023/11/11 04:22:26;;;;;;;1.60;1.17;;;7.80;99.90;;;;;;4998395;28;20989;-73
2023/11/11 04:25:12;;;;;;;2.20;1.00;;;7.80;99.90;;;;;;5003205;28;20449;-73
2023/11/11 04:27:57;;;;;;;2.27;1.40;;;7.90;99.90;;;;;;5001844;28;20476;-74
2023/11/11 04:30:43;;;;;;;1.60;1.10;;;7.80;99.90;;;;;;4997216;28;20801;-74
2023/11/11 04:33:29;;;;;;;8.63;1.60;;;7.90;99.90;;;;;;4994114;28;20837;-74
2023/11/11 04:36:15;;;;;;;7.23;2.47;;;7.90;99.90;;;;;;4998365;28;20499;-73
2023/11/11 04:39:02;;;;;;;2.13;1.33;;;7.90;99.90;;;;;;4998747;28;20424;-74
2023/11/11 04:41:48;;;;;;;3.80;1.10;;;7.90;99.90;;;;;;4996360;28;20459;-74
2023/11/11 04:44:34;;;;;;;2.00;1.37;;;7.70;99.90;;;;;;4994683;28;20583;-74
2023/11/11 04:47:20;;;;;;;2.07;1.60;;;7.80;99.90;;;;;;4998137;28;20430;-74
2023/11/11 04:50:07;;;;;;;3.47;1.53;;;7.70;99.90;;;;;;5001305;28;20427;-73
2023/11/11 04:52:53;;;;;;;4.90;2.00;;;7.70;99.90;;;;;;5000267;28;21029;-73
2023/11/11 04:55:40;;;;;;;3.10;1.90;;;7.60;99.90;;;;;;5000917;28;20477;-73
2023/11/11 04:58:26;;;;;;;1.80;1.47;;;7.60;99.90;;;;;;4998711;28;20427;-74
2023/11/11 05:01:12;;;;;;;2.77;1.80;;;7.60;99.90;;;;;;4996788;28;20457;-74
2023/11/11 05:03:58;;;;;;;1.80;1.10;;;7.60;99.90;;;;;;4998251;28;20430;-74
2023/11/11 05:06:44;;;;;;;2.30;1.73;;;7.60;99.90;;;;;;5002143;28;20907;-74
2023/11/11 05:09:29;;;;;;;2.40;2.03;;;7.60;99.90;;;;;;4995651;28;20463;-74
2023/11/11 05:12:16;;;;;;;12.17;2.30;;;7.60;99.90;;;;;;5005482;28;20466;-74
2023/11/11 05:15:04;;;;;;;2.30;1.80;;;7.60;99.90;;;;;;5000373;28;20524;-73
2023/11/11 05:17:50;;;;;;;3.13;2.15;;;7.60;99.90;;;;;;5004533;28;20904;-74
2023/11/11 05:20:35;;;;;;;4.73;2.43;;;7.50;99.90;;;;;;4999474;28;20272;-74
2023/11/11 05:23:22;;;;;;;5.20;2.10;;;7.60;99.90;;;;;;5001716;28;20569;-74
2023/11/11 05:26:08;;;;;;;3.10;2.30;;;7.70;99.90;;;;;;4999837;28;20447;-74
2023/11/11 05:28:56;;;;;;;2.10;1.90;;;7.60;99.90;;;;;;5005455;28;20474;-74
2023/11/11 05:31:41;;;;;;;1.93;1.70;;;7.60;99.90;;;;;;5000920;28;20472;-74
2023/11/11 05:34:27;;;;;;;3.80;2.10;;;7.60;99.90;;;;;;5002692;28;20564;-74
2023/11/11 05:37:13;;;;;;;5.40;1.90;;;7.50;99.90;;;;;;5002668;28;20433;-74
2023/11/11 05:39:59;;;;;;;4.33;2.33;;;7.50;99.90;;;;;;5003723;28;20422;-74
2023/11/11 05:42:44;;;;;;;3.07;2.40;;;7.50;99.90;;;;;;5001755;28;20978;-74
2023/11/11 05:45:31;;;;;;;5.87;2.57;;;7.50;99.90;;;;;;4998554;28;20427;-74
2023/11/11 05:48:17;;;;;;;5.10;2.27;;;7.50;99.90;;;;;;5002446;28;20468;-74
2023/11/11 05:51:04;;;;;;;2.40;1.83;;;7.60;99.90;;;;;;5002405;28;20798;-74
2023/11/11 05:53:49;;;;;;;5.63;2.40;;;7.70;99.90;;;;;;5002732;28;20463;-73
2023/11/11 05:56:37;;;;;;;3.67;2.30;;;7.70;99.90;;;;;;5002339;28;20434;-74
2023/11/11 05:59:23;;;;;;;5.20;2.37;;;7.70;99.90;;;;;;5002175;28;20434;-74
2023/11/11 06:02:10;;;;;;;3.90;1.97;;;7.70;99.90;;;;;;5002427;28;20852;-74
2023/11/11 06:04:56;;;;;;;4.33;2.07;;;7.70;99.90;;;;;;5005282;28;20441;-74
2023/11/11 06:07:41;;;;;;;4.97;2.40;;;7.80;99.90;;;;;;5000620;28;20432;-74
2023/11/11 06:10:27;;;;;;;4.53;2.37;;;7.80;99.90;;;;;;5000988;28;20422;-74
2023/11/11 06:13:12;;;;;;;5.37;3.10;;;7.90;99.90;;;;;;5004375;28;21132;-74
2023/11/11 06:15:58;;;;;;;5.27;2.70;;;7.80;99.90;;;;;;5005444;28;20899;-74
2023/11/11 06:18:45;;;;;;;5.33;2.60;;;7.80;99.90;;;;;;5001207;28;20804;-74
2023/11/11 06:21:30;;;;;;;4.07;3.10;;;7.80;99.90;;;;;;5002591;28;21022;-74
2023/11/11 06:24:17;;;;;;;5.93;2.37;;;7.80;99.90;;;;;;5002274;28;20558;-74
2023/11/11 06:27:03;;;;;;;4.70;2.80;;;7.90;99.90;;;;;;4998039;28;20437;-73
2023/11/11 06:29:48;;;;;;;4.00;2.53;;;7.90;99.90;;;;;;5002578;28;20465;-74
2023/11/11 06:32:34;;;;;;;9.50;4.60;;;7.90;99.90;;;;;;5000084;28;20466;-74
2023/11/11 06:35:22;;;;;;;6.23;4.30;;;7.90;99.90;;;;;;4994506;28;20460;-74
2023/11/11 06:38:10;;;;;;;3.50;2.63;;;8.00;99.90;;;;;;5000299;28;20422;-74
2023/11/11 06:40:56;;;;;;;4.40;2.37;;;8.00;99.90;;;;;;5002275;28;20516;-74
2023/11/11 06:43:42;;;;;;;6.17;3.60;;;8.00;99.90;;;;;;5001993;28;20549;-74
2023/11/11 06:46:28;;;;;;;5.60;3.90;;;7.90;99.90;;;;;;5002961;28;21392;-74
2023/11/11 06:49:14;;;;;;;7.17;3.70;;;7.90;99.90;;;;;;5002379;28;20469;-74
2023/11/11 06:52:01;;;;;;;27.47;13.60;;;8.00;99.90;;;;;;5005529;28;20610;-74
2023/11/11 06:54:47;;;;;;;9.53;5.33;;;8.00;99.90;;;;;;5005590;28;20514;-74
2023/11/11 06:57:33;;;;;;;14.80;8.10;;;8.00;99.90;;;;;;5006392;28;20924;-74
2023/11/11 07:00:20;;;;;;;7.50;4.33;;;8.00;99.90;;;;;;5000094;28;20802;-74
2023/11/11 07:03:06;;;;;;;6.30;2.77;;;8.10;99.90;;;;;;4998543;28;20457;-74
2023/11/11 07:05:52;;;;;;;4.90;2.97;;;8.10;99.90;;;;;;5003180;28;20450;-73
2023/11/11 07:08:39;;;;;;;5.10;3.27;;;8.10;99.90;;;;;;4999624;28;20613;-73
2023/11/11 07:11:25;;;;;;;4.10;3.00;;;8.00;99.90;;;;;;5002494;28;20590;-74
2023/11/11 07:14:12;;;;;;;5.53;3.20;;;8.00;99.90;;;;;;5005142;28;20481;-74
2023/11/11 07:16:57;;;;;;;5.97;2.30;;;8.10;99.90;;;;;;5001326;28;20593;-73
2023/11/11 07:19:42;;;;;;;3.47;2.57;;;8.20;99.90;;;;;;4998622;28;20963;-73
2023/11/11 07:22:31;;;;;;;5.47;3.13;;;8.20;99.90;;;;;;4995945;28;20468;-73
2023/11/11 07:25:20;;;;;;;5.40;2.97;;;8.10;99.90;;;;;;4997059;28;20526;-74
2023/11/11 07:28:06;;;;;;;4.47;2.87;;;8.10;99.90;;;;;;5000786;28;20838;-74
2023/11/11 07:30:51;;;;;;;3.80;3.13;;;8.10;99.90;;;;;;5000229;28;20836;-74
2023/11/11 07:33:37;;;;;;;4.37;2.70;;;8.10;99.90;;;;;;4998047;28;20509;-74
2023/11/11 07:36:24;;;;;;;7.50;3.17;;;8.10;99.90;;;;;;5003613;28;20445;-74
2023/11/11 07:39:10;;;;;;;6.00;2.77;;;8.10;99.90;;;;;;4999345;28;20940;-73
2023/11/11 07:41:57;;;;;;;4.50;2.93;;;8.20;99.90;;;;;;5000896;28;20453;-74
2023/11/11 07:44:44;;;;;;;4.80;2.87;;;8.20;99.90;;;;;;5000625;28;20805;-74
2023/11/11 07:47:29;;;;;;;5.53;3.57;;;8.20;99.90;;;;;;5002837;28;20436;-74
2023/11/11 07:50:17;;;;;;;5.90;2.57;;;8.10;99.90;;;;;;5002516;28;20466;-74
2023/11/11 07:53:04;;;;;;;4.40;2.70;;;8.20;99.90;;;;;;5005573;28;20587;-74
2023/11/11 07:55:50;;;;;;;4.57;3.07;;;8.20;99.90;;;;;;5002250;28;20431;-74
2023/11/11 07:58:38;;;;;;;5.63;2.57;;;8.20;99.90;;;;;;5001797;28;20486;-74
2023/11/11 08:01:25;;;;;;;4.27;2.87;;;8.30;99.90;;;;;;5001717;28;20802;-74
2023/11/11 08:04:10;;;;;;;2.57;2.07;;;8.30;99.90;;;;;;5001761;28;20963;-74
2023/11/11 08:06:56;;;;;;;6.17;2.30;;;8.30;99.90;;;;;;5003977;28;20459;-74
2023/11/11 08:09:42;;;;;;;7.83;2.80;;;8.40;99.90;;;;;;5000198;28;20884;-74
2023/11/11 08:12:29;;;;;;;3.50;2.50;;;8.40;99.90;;;;;;4996696;28;20553;-74
2023/11/11 08:15:16;;;;;;;4.53;3.27;;;8.40;99.90;;;;;;4998929;28;20822;-73
2023/11/11 08:18:02;;;;;;;8.10;2.80;;;8.50;99.90;;;;;;5005379;28;20971;-74
2023/11/11 08:20:50;;;;;;;5.20;3.00;;;8.50;99.90;;;;;;5002138;28;20514;-74
2023/11/11 08:23:36;;;;;;;6.90;3.20;;;8.60;99.90;;;;;;5004831;28;20534;-74
2023/11/11 08:26:22;;;;;;;6.73;3.10;;;8.60;99.90;;;;;;4999693;28;20953;-74
2023/11/11 08:29:07;;;;;;;4.20;3.07;;;8.50;99.90;;;;;;5005664;28;20469;-73
2023/11/11 08:31:54;;;;;;;5.37;3.40;;;8.40;99.90;;;;;;5002926;28;20995;-74
2023/11/11 08:34:40;;;;;;;5.20;3.43;;;8.40;99.90;;;;;;4999660;28;20797;-74
2023/11/11 08:37:26;;;;;;;10.30;3.87;;;8.50;99.90;;;;;;5004143;28;20447;-74
2023/11/11 08:40:13;;;;;;;4.20;2.97;;;8.50;99.90;;;;;;4998134;28;20866;-74
2023/11/11 08:42:58;;;;;;;7.90;3.97;;;8.60;99.90;;;;;;5004633;28;20836;-74
2023/11/11 08:45:44;;;;;;;7.47;3.70;;;8.60;99.90;;;;;;5000284;28;20808;-74
2023/11/11 08:48:31;;;;;;;5.20;3.30;;;8.50;99.90;;;;;;5002327;28;20433;-74
2023/11/11 08:51:17;;;;;;;5.87;3.13;;;8.60;99.90;;;;;;5001875;28;20433;-74
2023/11/11 08:54:02;;;;;;;4.83;3.30;;;8.70;99.90;;;;;;5000100;28;20533;-74
2023/11/11 08:56:48;;;;;;;5.67;3.00;;;8.70;99.90;;;;;;5000406;28;20957;-74
2023/11/11 08:59:34;;;;;;;4.60;3.13;;;8.80;99.90;;;;;;5003986;28;20486;-74
2023/11/11 09:02:20;;;;;;;5.57;3.20;;;8.90;99.90;;;;;;4998271;28;20985;-74
2023/11/11 09:05:07;;;;;;;6.40;3.83;;;8.90;99.90;;;;;;5000585;28;20526;-74
2023/11/11 09:07:53;;;;;;;6.60;3.43;;;8.90;99.90;;;;;;4989049;28;20453;-74
2023/11/11 09:10:40;;;;;;;10.70;4.50;;;9.00;99.90;;;;;;4995195;28;20834;-73
2023/11/11 09:13:26;;;;;;;5.20;3.67;;;9.00;99.90;;;;;;5057847;22;20868;-75
2023/11/11 09:16:12;;;;;;;8.57;3.43;;;8.90;99.90;;;;;;5073260;28;20462;-75
2023/11/11 09:18:57;;;;;;;6.07;3.90;;;8.90;99.90;;;;;;5073827;28;20442;-75
2023/11/11 09:21:44;;;;;;;6.70;3.70;;;8.90;99.90;;;;;;5075821;28;20438;-75
2023/11/11 09:24:30;;;;;;;5.40;3.87;;;8.90;99.90;;;;;;5052436;28;20566;-75
2023/11/11 09:27:16;;;;;;;7.93;4.30;;;8.90;99.90;;;;;;5052826;28;20448;-75
2023/11/11 09:30:02;;;;;;;6.40;4.30;;;8.80;99.90;;;;;;5064979;28;20454;-74
2023/11/11 09:32:50;;;;;;;4.70;3.10;;;8.80;99.90;;;;;;5056403;28;20484;-75
2023/11/11 09:35:36;;;;;;;8.07;4.20;;;8.90;99.90;;;;;;5053436;28;22084;-74
2023/11/11 09:38:23;;;;;;;7.63;3.73;;;8.90;99.90;;;;;;5055778;28;20527;-75
2023/11/11 09:41:09;;;;;;;7.50;4.30;;;8.80;99.90;;;;;;5055474;28;20966;-75
2023/11/11 09:43:55;;;;;;;7.93;4.43;;;8.90;99.90;;;;;;5046462;28;21008;-75
2023/11/11 09:46:51;;;;;;;6.10;4.53;;;8.90;99.90;;;;;;5052529;28;20497;-75
2023/11/11 09:49:37;;;;;;;6.80;4.37;;;8.80;99.90;;;;;;5046975;28;20472;-75
2023/11/11 09:52:24;;;;;;;6.83;4.23;;;8.80;99.90;;;;;;5048599;28;20463;-74
2023/11/11 09:55:13;;;;;;;7.17;4.50;;;8.70;99.90;;;;;;5048583;28;20501;-75
2023/11/11 09:58:00;;;;;;;9.50;4.50;;;8.70;99.90;;;;;;5050256;28;20469;-74
2023/11/11 10:00:46;;;;;;;5.73;4.33;;;8.70;99.90;;;;;;5054038;28;20607;-75
2023/11/11 10:03:32;;;;;;;6.40;4.37;;;8.80;99.90;;;;;;5054387;28;20628;-75
2023/11/11 10:06:18;;;;;;;5.23;3.30;;;8.80;99.90;;;;;;5057710;28;20440;-74
2023/11/11 10:09:08;;;;;;;6.00;3.57;;;8.90;99.90;;;;;;5064622;28;20422;-75
2023/11/11 10:11:56;;;;;;;4.93;3.90;;;8.90;99.90;;;;;;5059570;28;20432;-75
2023/11/11 10:14:42;;;;;;;6.87;3.73;;;8.90;99.90;;;;;;5060770;28;20496;-75
2023/11/11 10:17:27;;;;;;;4.77;3.40;;;9.20;99.90;;;;;;5066520;28;20431;-75
2023/11/11 10:20:15;;;;;;;4.30;3.50;;;9.40;99.90;;;;;;5057904;28;20552;-75
2023/11/11 10:23:00;;;;;;;7.60;4.83;;;9.50;99.90;;;;;;5067623;28;20500;-75
2023/11/11 10:25:46;;;;;;;9.53;3.40;;;9.70;99.90;;;;;;5058859;28;20431;-75
2023/11/11 10:28:33;;;;;;;6.87;3.33;;;9.90;99.90;;;;;;5060648;28;20962;-75
2023/11/11 10:31:21;;;;;;;6.07;2.80;;;10.10;99.90;;;;;;5058428;28;20474;-75
2023/11/11 10:34:07;;;;;;;9.77;3.03;;;10.30;99.90;;;;;;5054419;28;21032;-75
2023/11/11 10:36:52;;;;;;;4.90;3.57;;;10.20;99.90;;;;;;5053838;28;20473;-75
2023/11/11 10:39:39;;;;;;;4.57;3.20;;;10.20;99.90;;;;;;5050625;28;20456;-74
2023/11/11 10:42:27;;;;;;;7.17;2.80;;;10.10;99.90;;;;;;5049801;28;20468;-75
2023/11/11 10:45:15;;;;;;;5.10;2.63;;;10.10;99.90;;;;;;5054534;28;20454;-75
2023/11/11 10:48:01;;;;;;;2.63;2.20;;;10.00;99.90;;;;;;5054115;28;20489;-75
2023/11/11 10:50:47;;;;;;;3.23;2.00;;;9.90;99.90;;;;;;5061397;28;20598;-74
2023/11/11 10:53:34;;;;;;;6.03;2.50;;;9.80;99.90;;;;;;5055100;28;20995;-75
2023/11/11 10:56:20;;;;;;;4.27;2.13;;;9.80;99.90;;;;;;5055099;28;20425;-76
2023/11/11 10:59:07;;;;;;;5.07;2.17;;;9.60;99.90;;;;;;5055820;28;20428;-75
2023/11/11 11:01:54;;;;;;;7.03;2.33;;;9.50;99.90;;;;;;5067005;28;20467;-75
2023/11/11 11:04:46;;;;;;;4.30;1.93;;;9.40;99.90;;;;;;5063415;28;20470;-75
2023/11/11 11:07:36;;;;;;;7.00;2.33;;;9.20;99.90;;;;;;5060213;28;20431;-75
2023/11/11 11:10:27;;;;;;;9.93;2.00;;;9.20;99.90;;;;;;5057003;28;20471;-76
2023/11/11 11:13:15;;;;;;;3.17;1.90;;;9.10;99.90;;;;;;5021982;28;1171313;-75
2023/11/11 11:16:02;;;;;;;3.43;2.20;;;9.00;99.90;;;;;;5067255;28;20228;-75
2023/11/11 11:18:56;;;;;;;4.00;1.87;;;9.00;99.90;;;;;;5064203;28;20803;-75
2023/11/11 11:21:42;;;;;;;5.53;2.20;;;8.90;99.90;;;;;;5064823;28;20419;-75
2023/11/11 11:24:27;;;;;;;5.57;2.43;;;9.00;99.90;;;;;;5059199;28;20950;-75
2023/11/11 11:27:13;;;;;;;3.37;2.47;;;9.00;99.90;;;;;;5057488;28;20509;-75
2023/11/11 11:30:23;;;;;;;4.00;2.20;;;9.00;99.90;;;;;;5064742;28;20560;-75
2023/11/11 11:33:09;;;;;;;3.33;2.17;;;9.00;99.90;;;;;;5068245;28;20443;-75
2023/11/11 11:36:01;;;;;;;2.30;1.70;;;9.00;99.90;;;;;;5064124;28;20785;-74
2023/11/11 11:38:48;;;;;;;4.00;2.17;;;9.00;99.90;;;;;;5065503;28;20426;-75
2023/11/11 11:41:34;;;;;;;3.37;1.90;;;9.10;99.90;;;;;;5057328;28;20794;-75
2023/11/11 11:44:20;;;;;;;4.00;1.80;;;9.10;99.90;;;;;;5058759;28;20431;-75
2023/11/11 11:47:06;;;;;;;3.43;2.00;;;9.10;99.90;;;;;;5067586;28;20443;-75
2023/11/11 11:49:52;;;;;;;3.37;1.80;;;9.00;99.90;;;;;;5059834;28;20509;-75
2023/11/11 11:52:40;;;;;;;2.50;1.90;;;9.10;99.90;;;;;;5056306;28;20453;-74
2023/11/11 11:55:25;;;;;;;5.33;1.63;;;9.10;99.90;;;;;;5066606;28;20430;-75
2023/11/11 11:58:14;;;;;;;4.37;2.13;;;9.20;99.90;;;;;;5054819;28;20423;-75
2023/11/11 12:00:59;;;;;;;4.73;1.60;;;9.30;99.90;;;;;;5067692;28;21057;-74
2023/11/11 12:03:45;;;;;;;2.47;1.50;;;9.40;99.90;;;;;;5063589;28;20452;-75
2023/11/11 12:06:31;;;;;;;5.27;1.43;;;9.40;99.90;;;;;;5063980;28;20433;-75
2023/11/11 12:09:18;;;;;;;5.60;1.50;;;9.40;99.90;;;;;;5053208;28;20428;-75
2023/11/11 12:12:08;;;;;;;3.30;1.20;;;9.50;99.90;;;;;;5065073;28;20997;-75
2023/11/11 12:14:53;;;;;;;2.80;1.70;;;9.50;99.90;;;;;;5064857;28;20593;-75
2023/11/11 12:17:40;;;;;;;5.03;1.70;;;9.40;99.90;;;;;;5062844;28;20489;-75
2023/11/11 12:20:39;;;;;;;4.30;1.70;;;9.40;99.90;;;;;;5068202;28;20419;-74
2023/11/11 12:23:28;;;;;;;5.00;1.40;;;9.40;99.90;;;;;;5059340;28;20810;-75
2023/11/11 12:26:17;;;;;;;2.43;1.20;;;9.30;99.90;;;;;;5061045;28;20437;-74
2023/11/11 12:29:03;;;;;;;4.73;1.37;;;9.40;99.90;;;;;;5057628;28;20789;-74
2023/11/11 12:31:49;;;;;;;2.30;1.13;;;9.30;99.90;;;;;;5065993;28;20844;-75
2023/11/11 12:34:35;;;;;;;3.03;1.20;;;9.20;99.90;;;;;;5061361;28;20537;-75
2023/11/11 12:37:21;;;;;;;4.57;1.40;;;9.20;99.90;;;;;;5057301;28;20847;-75
2023/11/11 12:40:08;;;;;;;6.90;1.40;;;9.20;99.90;;;;;;5064320;28;20838;-75
2023/11/11 12:42:55;;;;;;;3.10;1.40;;;9.40;99.90;;;;;;5063431;28;20457;-75
2023/11/11 12:45:46;;;;;;;4.60;1.47;;;9.40;99.90;;;;;;5067107;28;20462;-75
2023/11/11 12:48:34;;;;;;;2.20;1.40;;;9.40;99.90;;;;;;5058729;28;20441;-75
2023/11/11 12:51:29;;;;;;;7.03;1.80;;;9.50;99.90;;;;;;5058162;28;20483;-75
2023/11/11 12:54:16;;;;;;;2.60;1.20;;;9.50;99.90;;;;;;5066240;28;20427;-74
2023/11/11 12:57:03;;;;;;;4.03;1.10;;;9.50;99.90;;;;;;5066733;28;20420;-75
2023/11/11 12:59:56;;;;;;;3.57;1.23;;;9.50;99.90;;;;;;5060929;28;20542;-74
2023/11/11 13:02:42;;;;;;;3.63;1.90;;;9.50;99.90;;;;;;5055431;28;21048;-74
2023/11/11 13:05:27;;;;;;;7.57;2.27;;;9.50;99.90;;;;;;5067418;28;20431;-74
2023/11/11 13:08:18;;;;;;;3.50;1.50;;;9.50;99.90;;;;;;5059007;28;20428;-74
2023/11/11 13:11:05;;;;;;;5.90;1.90;;;9.50;99.90;;;;;;5060500;28;20459;-74
2023/11/11 13:13:51;;;;;;;5.53;1.37;;;9.50;99.90;;;;;;5066245;28;20470;-74
2023/11/11 13:16:38;;;;;;;2.73;1.47;;;9.50;99.90;;;;;;5061191;28;20438;-74
2023/11/11 13:19:26;;;;;;;5.27;1.83;;;9.50;99.90;;;;;;5066057;28;20828;-74
2023/11/11 13:22:12;;;;;;;2.60;1.30;;;9.50;99.90;;;;;;5068064;28;20579;-74
2023/11/11 13:25:00;;;;;;;5.90;1.60;;;9.50;99.90;;;;;;5066834;28;20427;-74
2023/11/11 13:27:46;;;;;;;5.13;1.70;;;9.50;99.90;;;;;;5067568;28;20430;-74
2023/11/11 13:30:32;;;;;;;3.90;1.53;;;9.50;99.90;;;;;;5068808;28;21020;-74
2023/11/11 13:33:19;;;;;;;2.13;1.30;;;9.50;99.90;;;;;;5061328;28;20996;-74
2023/11/11 13:36:09;;;;;;;3.03;1.30;;;9.50;99.90;;;;;;5071646;28;20424;-74
2023/11/11 13:38:55;;;;;;;2.87;1.60;;;9.40;99.90;;;;;;5070515;28;20429;-74
2023/11/11 13:41:42;;;;;;;5.77;1.63;;;9.40;99.90;;;;;;5065019;28;20475;-73
2023/11/11 13:44:27;;;;;;;3.20;1.50;;;9.40;99.90;;;;;;5071545;28;21080;-74
2023/11/11 13:47:13;;;;;;;5.30;1.53;;;9.40;99.90;;;;;;5072217;28;20497;-74
2023/11/11 13:50:00;;;;;;;4.63;1.60;;;9.40;99.90;;;;;;5066441;28;20797;-74
2023/11/11 13:52:46;;;;;;;6.07;1.70;;;9.40;99.90;;;;;;5067189;28;20486;-74
2023/11/11 13:55:32;;;;;;;3.00;1.50;;;9.40;99.90;;;;;;5067315;28;20431;-74
2023/11/11 13:58:17;;;;;;;5.90;1.90;;;9.50;99.90;;;;;;5061759;28;20753;-74
2023/11/11 14:01:04;;;;;;;3.73;1.73;;;9.50;99.90;;;;;;5072273;28;20499;-74
2023/11/11 14:03:50;;;;;;;3.13;1.80;;;9.40;99.90;;;;;;5070558;28;20445;-74
2023/11/11 14:06:37;;;;;;;6.20;1.97;;;9.40;99.90;;;;;;5071442;28;20582;-74
2023/11/11 14:09:23;;;;;;;2.63;1.53;;;9.40;99.90;;;;;;5058427;28;20445;-74
2023/11/11 14:12:09;;;;;;;5.77;2.10;;;9.30;99.90;;;;;;5071865;28;20462;-74
2023/11/11 14:14:55;;;;;;;3.37;1.90;;;9.20;99.90;;;;;;5071190;28;20438;-74
2023/11/11 14:17:41;;;;;;;5.83;1.97;;;9.20;99.90;;;;;;5064519;28;20966;-74
2023/11/11 14:20:28;;;;;;;7.60;1.70;;;9.20;99.90;;;;;;5055139;28;20965;-74
2023/11/11 14:23:18;;;;;;;3.47;1.30;;;9.30;99.90;;;;;;5056124;28;20487;-74
2023/11/11 14:26:05;;;;;;;6.63;1.67;;;9.30;99.90;;;;;;5042898;28;20451;-74
2023/11/11 14:28:54;;;;;;;3.00;1.40;;;9.30;99.90;;;;;;5069729;28;20955;-74
2023/11/11 14:31:39;;;;;;;2.20;1.30;;;9.40;99.90;;;;;;5071118;28;21020;-74
2023/11/11 14:34:25;;;;;;;2.30;1.27;;;9.50;99.90;;;;;;5071704;28;20991;-74
2023/11/11 14:37:12;;;;;;;7.70;1.67;;;9.50;99.90;;;;;;5059268;28;20992;-74